createdAt,value
2024-01-06T00:00:57.404Z,1.87
2024-01-06T00:01:57.233Z,1.80
2024-01-06T00:02:57.676Z,1.81
2024-01-06T00:03:57.333Z,1.79
2024-01-06T00:04:57.294Z,1.81
2024-01-06T00:05:57.266Z,1.80
2024-01-06T00:06:57.219Z,1.83
2024-01-06T00:07:57.223Z,1.86
2024-01-06T00:08:57.202Z,1.87
2024-01-06T00:09:57.231Z,1.81
2024-01-06T00:10:57.544Z,1.80
2024-01-06T00:11:57.261Z,1.76
2024-01-06T00:12:57.202Z,1.79
2024-01-06T00:13:57.210Z,1.79
2024-01-06T00:14:57.110Z,1.79
2024-01-06T00:15:57.175Z,1.80
2024-01-06T00:16:57.093Z,1.81
2024-01-06T00:17:57.302Z,1.83
2024-01-06T00:18:58.147Z,1.80
2024-01-06T00:19:57.268Z,1.80
2024-01-06T00:20:57.069Z,1.80
2024-01-06T00:21:57.079Z,1.79
2024-01-06T00:22:57.078Z,1.77
2024-01-06T00:23:57.042Z,1.79
2024-01-06T00:24:57.032Z,1.79
2024-01-06T00:25:56.998Z,1.80
2024-01-06T00:26:57.038Z,1.80
2024-01-06T00:27:56.989Z,1.79
2024-01-06T00:28:57.033Z,1.79
2024-01-06T00:29:56.984Z,1.80
2024-01-06T00:30:57.125Z,1.80
2024-01-06T00:31:56.970Z,1.79
2024-01-06T00:32:57.001Z,1.81
2024-01-06T00:33:57.024Z,1.79
2024-01-06T00:34:57.108Z,1.80
2024-01-06T00:35:56.910Z,1.76
2024-01-06T00:36:56.920Z,1.77
2024-01-06T00:37:56.931Z,1.77
2024-01-06T00:38:56.875Z,1.81
2024-01-06T00:39:56.879Z,1.81
2024-01-06T00:40:56.879Z,1.80
2024-01-06T00:41:56.919Z,1.81
2024-01-06T00:42:56.887Z,1.81
2024-01-06T00:43:56.847Z,1.76
2024-01-06T00:44:56.830Z,1.76
2024-01-06T00:45:56.827Z,1.76
2024-01-06T00:46:56.801Z,1.76
2024-01-06T00:47:56.999Z,1.76
2024-01-06T00:48:56.875Z,1.76
2024-01-06T00:49:56.751Z,1.79
2024-01-06T00:50:56.754Z,1.79
2024-01-06T00:51:56.803Z,1.77
2024-01-06T00:52:56.723Z,1.77
2024-01-06T00:53:56.732Z,1.76
2024-01-06T00:54:56.747Z,1.72
2024-01-06T00:55:56.719Z,1.76
2024-01-06T00:56:58.376Z,1.77
2024-01-06T00:57:56.683Z,1.79
2024-01-06T00:58:56.680Z,1.79
2024-01-06T00:59:56.686Z,1.77
2024-01-06T01:00:56.719Z,1.73
2024-01-06T01:01:56.675Z,1.73
2024-01-06T01:02:56.678Z,1.70
2024-01-06T01:03:56.758Z,1.72
2024-01-06T01:04:56.782Z,1.77
2024-01-06T01:05:56.650Z,1.76
2024-01-06T01:06:56.643Z,1.72
2024-01-06T01:07:56.618Z,1.76
2024-01-06T01:08:56.638Z,1.76
2024-01-06T01:09:56.592Z,1.79
2024-01-06T01:10:56.606Z,1.76
2024-01-06T01:11:56.531Z,1.76
2024-01-06T01:12:56.610Z,1.73
2024-01-06T01:13:56.542Z,1.72
2024-01-06T01:14:56.508Z,1.76
2024-01-06T01:15:56.551Z,1.76
2024-01-06T01:16:56.500Z,1.72
2024-01-06T01:17:56.706Z,1.72
2024-01-06T01:18:56.600Z,1.70
2024-01-06T01:19:56.590Z,1.72
2024-01-06T01:20:56.452Z,1.73
2024-01-06T01:21:56.629Z,1.70
2024-01-06T01:22:56.415Z,1.69
2024-01-06T01:23:56.453Z,1.68
2024-01-06T01:24:56.574Z,1.72
2024-01-06T01:25:56.431Z,1.70
2024-01-06T01:26:56.447Z,1.72
2024-01-06T01:27:56.462Z,1.70
2024-01-06T01:28:56.380Z,1.70
2024-01-06T01:29:56.534Z,1.69
2024-01-06T01:30:56.731Z,1.69
2024-01-06T01:31:56.513Z,1.66
2024-01-06T01:32:56.435Z,1.68
2024-01-06T01:33:56.458Z,1.69
2024-01-06T01:34:56.359Z,1.70
2024-01-06T01:35:57.024Z,1.70
2024-01-06T01:36:56.301Z,1.69
2024-01-06T01:37:56.268Z,1.66
2024-01-06T01:38:56.272Z,1.68
2024-01-06T01:39:56.289Z,1.66
2024-01-06T01:40:56.257Z,1.66
2024-01-06T01:41:56.250Z,1.68
2024-01-06T01:42:56.248Z,1.66
2024-01-06T01:43:56.220Z,1.65
2024-01-06T01:44:56.220Z,1.65
2024-01-06T01:45:56.305Z,1.65
2024-01-06T01:46:56.194Z,1.69
2024-01-06T01:47:56.248Z,1.69
2024-01-06T01:48:56.453Z,1.69
2024-01-06T01:49:56.237Z,1.68
2024-01-06T01:50:56.157Z,1.69
2024-01-06T01:51:56.194Z,1.68
2024-01-06T01:52:56.138Z,1.68
2024-01-06T01:53:56.116Z,1.70
2024-01-06T01:54:56.207Z,1.69
2024-01-06T01:55:56.089Z,1.70
2024-01-06T01:56:56.135Z,1.70
2024-01-06T01:57:56.101Z,1.68
2024-01-06T01:58:56.077Z,1.69
2024-01-06T01:59:56.095Z,1.68
2024-01-06T02:00:56.248Z,1.66
2024-01-06T02:01:56.042Z,1.65
2024-01-06T02:02:56.102Z,1.62
2024-01-06T02:03:56.092Z,1.58
2024-01-06T02:04:56.051Z,1.55
2024-01-06T02:05:56.027Z,1.58
2024-01-06T02:06:56.008Z,1.59
2024-01-06T02:07:56.080Z,1.60
2024-01-06T02:08:56.029Z,1.55
2024-01-06T02:09:55.990Z,1.55
2024-01-06T02:10:56.002Z,1.60
2024-01-06T02:11:55.934Z,1.59
2024-01-06T02:12:56.088Z,1.60
2024-01-06T02:13:55.913Z,1.59
2024-01-06T02:14:56.053Z,1.60
2024-01-06T02:15:55.992Z,1.62
2024-01-06T02:16:55.898Z,1.63
2024-01-06T02:17:56.170Z,1.62
2024-01-06T02:18:55.972Z,1.62
2024-01-06T02:19:55.898Z,1.62
2024-01-06T02:20:55.851Z,1.59
2024-01-06T02:21:55.947Z,1.62
2024-01-06T02:22:55.826Z,1.60
2024-01-06T02:23:55.847Z,1.60
2024-01-06T02:24:55.863Z,1.59
2024-01-06T02:25:55.798Z,1.59
2024-01-06T02:26:55.800Z,1.55
2024-01-06T02:27:55.881Z,1.54
2024-01-06T02:28:55.880Z,1.51
2024-01-06T02:29:55.771Z,1.55
2024-01-06T02:30:55.831Z,1.55
2024-01-06T02:31:55.740Z,1.58
2024-01-06T02:32:55.869Z,1.59
2024-01-06T02:33:55.831Z,1.58
2024-01-06T02:34:55.745Z,1.58
2024-01-06T02:35:55.724Z,1.59
2024-01-06T02:36:55.793Z,1.59
2024-01-06T02:37:55.674Z,1.59
2024-01-06T02:38:55.665Z,1.59
2024-01-06T02:39:55.680Z,1.60
2024-01-06T02:40:55.639Z,1.60
2024-01-06T02:41:55.673Z,1.62
2024-01-06T02:42:55.661Z,1.65
2024-01-06T02:43:55.619Z,1.65
2024-01-06T02:44:55.630Z,1.66
2024-01-06T02:45:55.628Z,1.69
2024-01-06T02:46:55.597Z,1.63
2024-01-06T02:47:55.795Z,1.59
2024-01-06T02:48:55.675Z,1.58
2024-01-06T02:49:55.666Z,1.52
2024-01-06T02:50:55.549Z,1.54
2024-01-06T02:51:55.622Z,1.54
2024-01-06T02:52:55.554Z,1.55
2024-01-06T02:53:55.513Z,1.54
2024-01-06T02:54:55.528Z,1.58
2024-01-06T02:55:55.490Z,1.59
2024-01-06T02:56:55.526Z,1.62
2024-01-06T02:57:55.475Z,1.63
2024-01-06T02:58:55.479Z,1.60
2024-01-06T02:59:55.460Z,1.60
2024-01-06T03:00:55.530Z,1.60
2024-01-06T03:01:55.538Z,1.60
2024-01-06T03:02:55.507Z,1.62
2024-01-06T03:03:55.529Z,1.60
2024-01-06T03:04:55.410Z,1.60
2024-01-06T03:05:55.469Z,1.60
2024-01-06T03:06:55.476Z,1.63
2024-01-06T03:07:55.428Z,1.63
2024-01-06T03:08:55.404Z,1.59
2024-01-06T03:09:55.414Z,1.55
2024-01-06T03:10:55.330Z,1.58
2024-01-06T03:11:55.379Z,1.59
2024-01-06T03:12:55.436Z,1.55
2024-01-06T03:13:55.315Z,1.59
2024-01-06T03:14:55.364Z,1.59
2024-01-06T03:15:55.350Z,1.59
2024-01-06T03:16:55.313Z,1.60
2024-01-06T03:17:55.383Z,1.60
2024-01-06T03:18:55.513Z,1.60
2024-01-06T03:19:55.289Z,1.58
2024-01-06T03:20:55.270Z,1.59
2024-01-06T03:21:55.276Z,1.60
2024-01-06T03:22:55.236Z,1.63
2024-01-06T03:23:55.982Z,1.62
2024-01-06T03:24:55.221Z,1.58
2024-01-06T03:25:55.380Z,1.58
2024-01-06T03:26:55.233Z,1.59
2024-01-06T03:27:55.222Z,1.59
2024-01-06T03:28:55.176Z,1.62
2024-01-06T03:29:55.220Z,1.62
2024-01-06T03:30:55.243Z,1.62
2024-01-06T03:31:55.223Z,1.62
2024-01-06T03:32:55.165Z,1.58
2024-01-06T03:33:55.216Z,1.58
2024-01-06T03:34:55.156Z,1.59
2024-01-06T03:35:55.117Z,1.55
2024-01-06T03:36:55.208Z,1.58
2024-01-06T03:37:55.079Z,1.55
2024-01-06T03:38:55.059Z,1.54
2024-01-06T03:39:55.170Z,1.52
2024-01-06T03:40:55.070Z,1.55
2024-01-06T03:41:55.061Z,1.55
2024-01-06T03:42:55.150Z,1.51
2024-01-06T03:43:55.029Z,1.51
2024-01-06T03:44:55.004Z,1.52
2024-01-06T03:45:55.057Z,1.52
2024-01-06T03:46:54.999Z,1.52
2024-01-06T03:47:55.170Z,1.52
2024-01-06T03:48:55.020Z,1.55
2024-01-06T03:49:55.001Z,1.52
2024-01-06T03:50:55.001Z,1.52
2024-01-06T03:51:54.999Z,1.54
2024-01-06T03:52:54.936Z,1.55
2024-01-06T03:53:54.936Z,1.58
2024-01-06T03:54:55.029Z,1.58
2024-01-06T03:55:54.938Z,1.54
2024-01-06T03:56:54.879Z,1.55
2024-01-06T03:57:54.870Z,1.58
2024-01-06T03:58:54.909Z,1.55
2024-01-06T03:59:54.896Z,1.54
2024-01-06T04:00:54.901Z,1.54
2024-01-06T04:01:54.839Z,1.52
2024-01-06T04:02:54.925Z,1.54
2024-01-06T04:03:54.882Z,1.55
2024-01-06T04:04:54.917Z,1.52
2024-01-06T04:05:54.996Z,1.52
2024-01-06T04:06:54.831Z,1.51
2024-01-06T04:07:54.786Z,1.50
2024-01-06T04:08:54.786Z,1.50
2024-01-06T04:09:54.800Z,1.51
2024-01-06T04:10:54.884Z,1.52
2024-01-06T04:11:54.814Z,1.54
2024-01-06T04:12:54.861Z,1.54
2024-01-06T04:13:54.726Z,1.54
2024-01-06T04:14:54.736Z,1.54
2024-01-06T04:15:54.743Z,1.50
2024-01-06T04:16:54.738Z,1.52
2024-01-06T04:17:54.808Z,1.48
2024-01-06T04:18:54.850Z,1.48
2024-01-06T04:19:54.828Z,1.50
2024-01-06T04:20:54.646Z,1.51
2024-01-06T04:21:54.703Z,1.52
2024-01-06T04:22:54.651Z,1.54
2024-01-06T04:23:54.666Z,1.54
2024-01-06T04:24:54.775Z,1.50
2024-01-06T04:25:54.731Z,1.48
2024-01-06T04:26:54.593Z,1.50
2024-01-06T04:27:54.627Z,1.51
2024-01-06T04:28:54.595Z,1.51
2024-01-06T04:29:54.629Z,1.48
2024-01-06T04:30:54.599Z,1.48
2024-01-06T04:31:54.636Z,1.48
2024-01-06T04:32:54.687Z,1.50
2024-01-06T04:33:54.704Z,1.52
2024-01-06T04:34:54.546Z,1.54
2024-01-06T04:35:54.521Z,1.51
2024-01-06T04:36:54.603Z,1.50
2024-01-06T04:37:54.465Z,1.47
2024-01-06T04:38:54.639Z,1.47
2024-01-06T04:39:54.605Z,1.48
2024-01-06T04:40:54.707Z,1.50
2024-01-06T04:41:54.425Z,1.51
2024-01-06T04:42:54.578Z,1.51
2024-01-06T04:43:54.430Z,1.50
2024-01-06T04:44:54.577Z,1.45
2024-01-06T04:45:54.467Z,1.47
2024-01-06T04:46:54.374Z,1.50
2024-01-06T04:47:54.532Z,1.50
2024-01-06T04:48:54.509Z,1.50
2024-01-06T04:49:54.413Z,1.48
2024-01-06T04:50:54.417Z,1.50
2024-01-06T04:51:54.407Z,1.51
2024-01-06T04:52:54.358Z,1.52
2024-01-06T04:53:54.318Z,1.52
2024-01-06T04:54:54.328Z,1.50
2024-01-06T04:55:54.331Z,1.47
2024-01-06T04:56:54.340Z,1.47
2024-01-06T04:57:54.341Z,1.50
2024-01-06T04:58:54.290Z,1.52
2024-01-06T04:59:54.339Z,1.52
2024-01-06T05:00:54.345Z,1.52
2024-01-06T05:01:54.359Z,1.55
2024-01-06T05:02:54.256Z,1.55
2024-01-06T05:03:54.256Z,1.58
2024-01-06T05:04:54.237Z,1.59
2024-01-06T05:05:54.382Z,1.55
2024-01-06T05:06:54.314Z,1.58
2024-01-06T05:07:54.176Z,1.54
2024-01-06T05:08:54.227Z,1.51
2024-01-06T05:09:54.218Z,1.51
2024-01-06T05:10:54.129Z,1.51
2024-01-06T05:11:54.178Z,1.52
2024-01-06T05:12:54.203Z,1.51
2024-01-06T05:13:55.943Z,1.52
2024-01-06T05:14:54.136Z,1.51
2024-01-06T05:15:54.309Z,1.52
2024-01-06T05:16:54.115Z,1.55
2024-01-06T05:17:54.183Z,1.54
2024-01-06T05:18:54.269Z,1.51
2024-01-06T05:19:54.100Z,1.47
2024-01-06T05:20:54.341Z,1.48
2024-01-06T05:21:54.094Z,1.48
2024-01-06T05:22:54.089Z,1.50
2024-01-06T05:23:54.036Z,1.50
2024-01-06T05:24:54.454Z,1.51
2024-01-06T05:25:53.977Z,1.51
2024-01-06T05:26:53.981Z,1.50
2024-01-06T05:27:54.053Z,1.51
2024-01-06T05:28:53.966Z,1.51
2024-01-06T05:29:53.947Z,1.47
2024-01-06T05:30:54.004Z,1.45
2024-01-06T05:31:54.099Z,1.45
2024-01-06T05:32:53.978Z,1.45
2024-01-06T05:33:54.209Z,1.45
2024-01-06T05:34:54.029Z,1.45
2024-01-06T05:35:53.946Z,1.45
2024-01-06T05:36:54.103Z,1.45
2024-01-06T05:37:53.964Z,1.47
2024-01-06T05:38:53.897Z,1.48
2024-01-06T05:39:54.060Z,1.47
2024-01-06T05:40:53.945Z,1.48
2024-01-06T05:41:53.829Z,1.48
2024-01-06T05:42:53.892Z,1.48
2024-01-06T05:43:53.891Z,1.45
2024-01-06T05:44:54.074Z,1.42
2024-01-06T05:45:53.818Z,1.41
2024-01-06T05:46:53.792Z,1.42
2024-01-06T05:47:54.176Z,1.41
2024-01-06T05:48:53.884Z,1.40
2024-01-06T05:49:53.866Z,1.40
2024-01-06T05:50:53.767Z,1.42
2024-01-06T05:51:53.894Z,1.41
2024-01-06T05:52:53.702Z,1.44
2024-01-06T05:53:53.735Z,1.44
2024-01-06T05:54:53.944Z,1.45
2024-01-06T05:55:53.685Z,1.47
2024-01-06T05:56:53.715Z,1.47
2024-01-06T05:57:53.776Z,1.48
2024-01-06T05:58:53.706Z,1.47
2024-01-06T05:59:53.681Z,1.47
2024-01-06T06:00:53.734Z,1.48
2024-01-06T06:01:53.798Z,1.47
2024-01-06T06:02:53.645Z,1.50
2024-01-06T06:03:53.708Z,1.45
2024-01-06T06:04:53.768Z,1.45
2024-01-06T06:05:53.666Z,1.44
2024-01-06T06:06:53.661Z,1.41
2024-01-06T06:07:53.575Z,1.41
2024-01-06T06:08:53.570Z,1.40
2024-01-06T06:09:53.609Z,1.37
2024-01-06T06:10:53.577Z,1.40
2024-01-06T06:11:53.514Z,1.36
2024-01-06T06:12:53.609Z,1.36
2024-01-06T06:13:53.689Z,1.33
2024-01-06T06:14:53.524Z,1.34
2024-01-06T06:15:53.605Z,1.33
2024-01-06T06:16:53.464Z,1.34
2024-01-06T06:17:54.372Z,1.33
2024-01-06T06:18:53.550Z,1.33
2024-01-06T06:19:53.566Z,1.33
2024-01-06T06:20:53.422Z,1.32
2024-01-06T06:21:53.626Z,1.30
2024-01-06T06:22:53.409Z,1.27
2024-01-06T06:23:53.491Z,1.24
2024-01-06T06:24:53.466Z,1.23
2024-01-06T06:25:53.424Z,1.16
2024-01-06T06:26:53.378Z,1.16
2024-01-06T06:27:54.348Z,1.15
2024-01-06T06:28:53.388Z,1.12
2024-01-06T06:29:53.343Z,1.12
2024-01-06T06:30:53.368Z,1.14
2024-01-06T06:31:53.491Z,1.14
2024-01-06T06:32:53.408Z,1.12
2024-01-06T06:33:53.554Z,1.11
2024-01-06T06:34:53.354Z,1.11
2024-01-06T06:35:53.497Z,1.14
2024-01-06T06:36:53.284Z,1.12
2024-01-06T06:37:53.415Z,1.12
2024-01-06T06:38:53.246Z,1.11
2024-01-06T06:39:53.516Z,1.11
2024-01-06T06:40:53.194Z,1.09
2024-01-06T06:41:53.238Z,1.09
2024-01-06T06:42:53.257Z,1.08
2024-01-06T06:43:53.228Z,1.06
2024-01-06T06:44:53.268Z,1.08
2024-01-06T06:45:53.181Z,1.09
2024-01-06T06:46:53.116Z,1.05
2024-01-06T06:47:53.187Z,1.05
2024-01-06T06:48:53.128Z,1.06
2024-01-06T06:49:53.173Z,1.08
2024-01-06T06:50:53.150Z,1.05
2024-01-06T06:51:53.085Z,1.02
2024-01-06T06:52:53.060Z,1.00
2024-01-06T06:53:53.049Z,1.04
2024-01-06T06:54:53.175Z,0.98
2024-01-06T06:55:53.029Z,1.02
2024-01-06T06:56:53.019Z,1.02
2024-01-06T06:57:53.118Z,1.04
2024-01-06T06:58:53.045Z,1.06
2024-01-06T06:59:53.025Z,1.05
2024-01-06T07:00:53.064Z,1.05
2024-01-06T07:01:53.024Z,1.08
2024-01-06T07:02:53.011Z,1.06
2024-01-06T07:03:53.005Z,1.05
2024-01-06T07:04:52.961Z,1.05
2024-01-06T07:05:52.999Z,1.02
2024-01-06T07:06:53.053Z,1.05
2024-01-06T07:07:52.945Z,1.06
2024-01-06T07:08:52.912Z,1.08
2024-01-06T07:09:52.960Z,1.05
2024-01-06T07:10:52.894Z,1.04
2024-01-06T07:11:52.887Z,1.02
2024-01-06T07:12:52.954Z,1.00
2024-01-06T07:13:52.905Z,1.02
2024-01-06T07:14:52.843Z,1.04
2024-01-06T07:15:56.282Z,1.06
2024-01-06T07:16:53.837Z,1.08
2024-01-06T07:17:52.883Z,1.05
2024-01-06T07:18:53.039Z,0.98
2024-01-06T07:19:52.828Z,0.97
2024-01-06T07:20:52.775Z,0.97
2024-01-06T07:21:52.919Z,0.97
2024-01-06T07:22:52.835Z,0.97
2024-01-06T07:23:52.739Z,1.00
2024-01-06T07:24:52.847Z,0.98
2024-01-06T07:25:52.719Z,1.00
2024-01-06T07:26:52.713Z,0.94
2024-01-06T07:27:55.292Z,0.91
2024-01-06T07:28:52.698Z,0.87
2024-01-06T07:29:52.686Z,0.90
2024-01-06T07:30:52.747Z,0.90
2024-01-06T07:31:52.857Z,0.91
2024-01-06T07:32:52.740Z,0.88
2024-01-06T07:33:52.853Z,0.91
2024-01-06T07:34:52.697Z,0.87
2024-01-06T07:35:52.627Z,0.90
2024-01-06T07:36:52.679Z,0.90
2024-01-06T07:37:52.630Z,0.86
2024-01-06T07:38:52.589Z,0.87
2024-01-06T07:39:52.637Z,0.84
2024-01-06T07:40:52.580Z,0.84
2024-01-06T07:41:52.555Z,0.80
2024-01-06T07:42:52.627Z,0.83
2024-01-06T07:43:52.539Z,0.84
2024-01-06T07:44:52.521Z,0.84
2024-01-06T07:45:52.587Z,0.84
2024-01-06T07:46:52.559Z,0.83
2024-01-06T07:47:52.618Z,0.83
2024-01-06T07:48:52.690Z,0.84
2024-01-06T07:49:52.586Z,0.80
2024-01-06T07:50:52.464Z,0.84
2024-01-06T07:51:52.556Z,0.80
2024-01-06T07:52:52.431Z,0.80
2024-01-06T07:53:52.438Z,0.79
2024-01-06T07:54:52.494Z,0.76
2024-01-06T07:55:52.401Z,0.78
2024-01-06T07:56:52.398Z,0.78
2024-01-06T07:57:52.542Z,0.78
2024-01-06T07:58:52.397Z,0.79
2024-01-06T07:59:52.365Z,0.79
2024-01-06T08:00:52.449Z,0.83
2024-01-06T08:01:52.369Z,0.80
2024-01-06T08:02:52.347Z,0.79
2024-01-06T08:03:52.411Z,0.78
2024-01-06T08:04:52.383Z,0.79
2024-01-06T08:05:52.347Z,0.76
2024-01-06T08:06:55.429Z,0.75
2024-01-06T08:07:52.329Z,0.72
2024-01-06T08:08:52.311Z,0.73
2024-01-06T08:09:52.280Z,0.75
2024-01-06T08:10:52.519Z,0.79
2024-01-06T08:11:52.245Z,0.76
2024-01-06T08:12:52.301Z,0.76
2024-01-06T08:13:52.249Z,0.70
2024-01-06T08:14:52.230Z,0.72
2024-01-06T08:15:52.378Z,0.69
2024-01-06T08:16:52.246Z,0.70
2024-01-06T08:17:53.043Z,0.69
2024-01-06T08:18:52.289Z,0.70
2024-01-06T08:19:52.270Z,0.69
2024-01-06T08:20:52.287Z,0.69
2024-01-06T08:21:52.249Z,0.70
2024-01-06T08:22:52.191Z,0.69
2024-01-06T08:23:52.193Z,0.69
2024-01-06T08:24:52.271Z,0.68
2024-01-06T08:25:52.139Z,0.72
2024-01-06T08:26:52.109Z,0.73
2024-01-06T08:27:52.259Z,0.75
2024-01-06T08:28:52.276Z,0.73
2024-01-06T08:29:52.189Z,0.75
2024-01-06T08:30:52.268Z,0.76
2024-01-06T08:31:52.096Z,0.78
2024-01-06T08:32:52.079Z,0.73
2024-01-06T08:33:52.271Z,0.70
2024-01-06T08:34:52.168Z,0.73
2024-01-06T08:35:52.119Z,0.72
2024-01-06T08:36:52.408Z,0.73
2024-01-06T08:37:52.029Z,0.76
2024-01-06T08:38:52.009Z,0.78
2024-01-06T08:39:52.111Z,0.80
2024-01-06T08:40:51.975Z,0.79
2024-01-06T08:41:52.018Z,0.79
2024-01-06T08:42:51.986Z,0.79
2024-01-06T08:43:51.985Z,0.78
2024-01-06T08:44:52.082Z,0.80
2024-01-06T08:45:52.126Z,0.80
2024-01-06T08:46:52.008Z,0.83
2024-01-06T08:47:52.326Z,0.79
2024-01-06T08:48:52.059Z,0.78
2024-01-06T08:49:52.416Z,0.79
2024-01-06T08:50:52.490Z,0.78
2024-01-06T08:51:52.004Z,0.78
2024-01-06T08:52:51.847Z,0.75
2024-01-06T08:53:51.880Z,0.73
2024-01-06T08:54:52.099Z,0.73
2024-01-06T08:55:51.852Z,0.75
2024-01-06T08:56:51.880Z,0.70
2024-01-06T08:57:51.835Z,0.73
2024-01-06T08:58:51.806Z,0.72
2024-01-06T08:59:51.800Z,0.70
2024-01-06T09:00:51.828Z,0.73
2024-01-06T09:01:51.849Z,0.68
2024-01-06T09:02:51.841Z,0.73
2024-01-06T09:03:52.100Z,0.73
2024-01-06T09:04:51.799Z,0.75
2024-01-06T09:05:52.413Z,0.76
2024-01-06T09:06:51.764Z,0.79
2024-01-06T09:07:54.953Z,0.83
2024-01-06T09:08:51.723Z,0.79
2024-01-06T09:09:51.767Z,0.79
2024-01-06T09:10:51.672Z,0.73
2024-01-06T09:11:51.698Z,0.69
2024-01-06T09:12:51.702Z,0.73
2024-01-06T09:13:51.676Z,0.72
2024-01-06T09:14:51.616Z,0.73
2024-01-06T09:15:51.727Z,0.76
2024-01-06T09:16:51.601Z,0.78
2024-01-06T09:17:51.856Z,0.78
2024-01-06T09:18:51.736Z,0.80
2024-01-06T09:19:51.715Z,0.78
2024-01-06T09:20:51.614Z,0.78
2024-01-06T09:21:51.690Z,0.75
2024-01-06T09:22:51.549Z,0.75
2024-01-06T09:23:51.555Z,0.73
2024-01-06T09:24:51.669Z,0.72
2024-01-06T09:25:51.598Z,0.72
2024-01-06T09:26:51.505Z,0.70
2024-01-06T09:27:51.578Z,0.68
2024-01-06T09:28:51.480Z,0.70
2024-01-06T09:29:51.564Z,0.72
2024-01-06T09:30:51.508Z,0.75
2024-01-06T09:31:51.556Z,0.76
2024-01-06T09:32:51.528Z,0.73
2024-01-06T09:33:51.587Z,0.70
2024-01-06T09:34:51.734Z,0.70
2024-01-06T09:35:51.433Z,0.70
2024-01-06T09:36:51.461Z,0.72
2024-01-06T09:37:51.764Z,0.73
2024-01-06T09:38:51.425Z,0.75
2024-01-06T09:39:51.421Z,0.78
2024-01-06T09:40:51.375Z,0.76
2024-01-06T09:41:51.523Z,0.79
2024-01-06T09:42:51.543Z,0.75
2024-01-06T09:43:51.487Z,0.68
2024-01-06T09:44:51.398Z,0.66
2024-01-06T09:45:51.372Z,0.66
2024-01-06T09:46:51.312Z,0.62
2024-01-06T09:47:51.575Z,0.65
2024-01-06T09:48:51.365Z,0.65
2024-01-06T09:49:51.498Z,0.66
2024-01-06T09:50:51.269Z,0.66
2024-01-06T09:51:51.371Z,0.69
2024-01-06T09:52:51.261Z,0.73
2024-01-06T09:53:51.279Z,0.73
2024-01-06T09:54:51.299Z,0.73
2024-01-06T09:55:51.248Z,0.72
2024-01-06T09:56:51.211Z,0.70
2024-01-06T09:57:51.281Z,0.72
2024-01-06T09:58:51.264Z,0.69
2024-01-06T09:59:51.213Z,0.72
2024-01-06T10:00:51.270Z,0.69
2024-01-06T10:01:51.234Z,0.73
2024-01-06T10:02:51.165Z,0.75
2024-01-06T10:03:51.303Z,0.73
2024-01-06T10:04:51.316Z,0.73
2024-01-06T10:05:51.157Z,0.73
2024-01-06T10:06:51.154Z,0.70
2024-01-06T10:07:51.159Z,0.66
2024-01-06T10:08:51.096Z,0.61
2024-01-06T10:09:51.157Z,0.57
2024-01-06T10:10:51.122Z,0.60
2024-01-06T10:11:51.062Z,0.55
2024-01-06T10:12:51.238Z,0.57
2024-01-06T10:13:52.146Z,0.58
2024-01-06T10:14:51.051Z,0.62
2024-01-06T10:15:51.062Z,0.62
2024-01-06T10:16:51.068Z,0.62
2024-01-06T10:17:51.223Z,0.68
2024-01-06T10:18:53.920Z,0.68
2024-01-06T10:19:51.106Z,0.68
2024-01-06T10:20:51.003Z,0.70
2024-01-06T10:21:51.028Z,0.70
2024-01-06T10:22:50.983Z,0.70
2024-01-06T10:23:50.938Z,0.72
2024-01-06T10:24:51.028Z,0.75
2024-01-06T10:25:52.920Z,0.68
2024-01-06T10:26:51.165Z,0.66
2024-01-06T10:27:51.055Z,0.62
2024-01-06T10:28:50.896Z,0.60
2024-01-06T10:29:50.877Z,0.57
2024-01-06T10:30:50.972Z,0.55
2024-01-06T10:31:54.856Z,0.53
2024-01-06T10:32:51.002Z,0.53
2024-01-06T10:33:50.987Z,0.51
2024-01-06T10:34:50.952Z,0.50
2024-01-06T10:35:50.869Z,0.53
2024-01-06T10:36:50.847Z,0.58
2024-01-06T10:37:50.803Z,0.57
2024-01-06T10:38:50.854Z,0.51
2024-01-06T10:39:50.993Z,0.51
2024-01-06T10:40:50.987Z,0.51
2024-01-06T10:41:51.605Z,0.55
2024-01-06T10:42:50.788Z,0.53
2024-01-06T10:43:50.755Z,0.55
2024-01-06T10:44:50.774Z,0.57
2024-01-06T10:45:50.836Z,0.57
2024-01-06T10:46:50.724Z,0.57
2024-01-06T10:47:50.741Z,0.57
2024-01-06T10:48:50.855Z,0.55
2024-01-06T10:49:54.680Z,0.53
2024-01-06T10:50:51.717Z,0.57
2024-01-06T10:51:50.766Z,0.58
2024-01-06T10:52:50.792Z,0.60
2024-01-06T10:53:50.678Z,0.62
2024-01-06T10:54:50.723Z,0.69
2024-01-06T10:55:53.101Z,0.66
2024-01-06T10:56:50.732Z,0.62
2024-01-06T10:57:50.672Z,0.65
2024-01-06T10:58:50.608Z,0.62
2024-01-06T10:59:50.794Z,0.65
2024-01-06T11:00:50.799Z,0.62
2024-01-06T11:01:50.664Z,0.66
2024-01-06T11:02:50.558Z,0.65
2024-01-06T11:03:50.728Z,0.66
2024-01-06T11:04:50.597Z,0.68
2024-01-06T11:05:50.540Z,0.68
2024-01-06T11:06:50.583Z,0.69
2024-01-06T11:07:50.513Z,0.66
2024-01-06T11:08:50.520Z,0.68
2024-01-06T11:09:50.527Z,0.66
2024-01-06T11:10:50.472Z,0.66
2024-01-06T11:11:50.555Z,0.65
2024-01-06T11:12:51.451Z,0.68
2024-01-06T11:13:50.441Z,0.66
2024-01-06T11:14:50.558Z,0.66
2024-01-06T11:15:50.591Z,0.69
2024-01-06T11:16:50.461Z,0.69
2024-01-06T11:17:50.660Z,0.70
2024-01-06T11:18:50.592Z,0.70
2024-01-06T11:19:50.500Z,0.66
2024-01-06T11:20:51.021Z,0.65
2024-01-06T11:21:50.389Z,0.61
2024-01-06T11:22:50.390Z,0.68
2024-01-06T11:23:50.370Z,0.69
2024-01-06T11:24:50.454Z,0.73
2024-01-06T11:25:50.389Z,0.75
2024-01-06T11:26:50.341Z,0.75
2024-01-06T11:27:50.358Z,0.72
2024-01-06T11:28:50.395Z,0.72
2024-01-06T11:29:50.273Z,0.76
2024-01-06T11:30:50.362Z,0.73
2024-01-06T11:31:50.434Z,0.72
2024-01-06T11:32:50.294Z,0.69
2024-01-06T11:33:50.465Z,0.70
2024-01-06T11:34:50.326Z,0.68
2024-01-06T11:35:50.247Z,0.69
2024-01-06T11:36:50.343Z,0.65
2024-01-06T11:37:50.309Z,0.66
2024-01-06T11:38:50.211Z,0.66
2024-01-06T11:39:50.234Z,0.70
2024-01-06T11:40:50.170Z,0.72
2024-01-06T11:41:50.171Z,0.76
2024-01-06T11:42:50.203Z,0.78
2024-01-06T11:43:50.161Z,0.79
2024-01-06T11:44:50.320Z,0.83
2024-01-06T11:45:50.187Z,0.80
2024-01-06T11:46:50.132Z,0.79
2024-01-06T11:47:50.349Z,0.76
2024-01-06T11:48:50.214Z,0.75
2024-01-06T11:49:50.109Z,0.73
2024-01-06T11:50:50.203Z,0.75
2024-01-06T11:51:50.124Z,0.72
2024-01-06T11:52:50.059Z,0.73
2024-01-06T11:53:50.083Z,0.70
2024-01-06T11:54:50.078Z,0.75
2024-01-06T11:55:50.154Z,0.73
2024-01-06T11:56:50.035Z,0.75
2024-01-06T11:57:50.085Z,0.76
2024-01-06T11:58:50.036Z,0.79
2024-01-06T11:59:49.990Z,0.79
2024-01-06T12:00:50.449Z,0.83
2024-01-06T12:01:50.033Z,0.80
2024-01-06T12:02:49.966Z,0.80
2024-01-06T12:03:50.046Z,0.78
2024-01-06T12:04:49.985Z,0.76
2024-01-06T12:05:49.940Z,0.72
2024-01-06T12:06:49.987Z,0.69
2024-01-06T12:07:49.907Z,0.66
2024-01-06T12:08:50.446Z,0.65
2024-01-06T12:09:49.936Z,0.66
2024-01-06T12:10:49.887Z,0.65
2024-01-06T12:11:49.867Z,0.62
2024-01-06T12:12:49.902Z,0.58
2024-01-06T12:13:49.845Z,0.60
2024-01-06T12:14:49.858Z,0.61
2024-01-06T12:15:49.905Z,0.60
2024-01-06T12:16:50.479Z,0.61
2024-01-06T12:17:49.896Z,0.61
2024-01-06T12:18:49.942Z,0.62
2024-01-06T12:19:49.861Z,0.65
2024-01-06T12:20:49.783Z,0.60
2024-01-06T12:21:49.839Z,0.60
2024-01-06T12:22:49.845Z,0.53
2024-01-06T12:23:49.774Z,0.55
2024-01-06T12:24:49.785Z,0.58
2024-01-06T12:25:49.771Z,0.57
2024-01-06T12:26:49.763Z,0.57
2024-01-06T12:27:49.823Z,0.57
2024-01-06T12:28:49.704Z,0.58
2024-01-06T12:29:49.714Z,0.61
2024-01-06T12:30:49.762Z,0.62
2024-01-06T12:31:50.010Z,0.61
2024-01-06T12:32:49.859Z,0.55
2024-01-06T12:33:49.779Z,0.47
2024-01-06T12:34:49.924Z,0.50
2024-01-06T12:35:49.628Z,0.49
2024-01-06T12:36:49.873Z,0.47
2024-01-06T12:37:49.645Z,0.47
2024-01-06T12:38:49.622Z,0.46
2024-01-06T12:39:49.783Z,0.44
2024-01-06T12:40:49.602Z,0.47
2024-01-06T12:41:49.565Z,0.51
2024-01-06T12:42:49.613Z,0.50
2024-01-06T12:43:49.612Z,0.49
2024-01-06T12:44:49.594Z,0.51
2024-01-06T12:45:49.602Z,0.51
2024-01-06T12:46:49.555Z,0.50
2024-01-06T12:47:49.706Z,0.51
2024-01-06T12:48:49.982Z,0.51
2024-01-06T12:49:49.777Z,0.55
2024-01-06T12:50:49.537Z,0.57
2024-01-06T12:51:49.576Z,0.53
2024-01-06T12:52:49.515Z,0.53
2024-01-06T12:53:49.456Z,0.51
2024-01-06T12:54:49.536Z,0.51
2024-01-06T12:55:49.661Z,0.50
2024-01-06T12:56:49.530Z,0.47
2024-01-06T12:57:49.471Z,0.46
2024-01-06T12:58:49.465Z,0.46
2024-01-06T12:59:49.395Z,0.44
2024-01-06T13:00:49.503Z,0.46
2024-01-06T13:01:49.561Z,0.46
2024-01-06T13:02:49.483Z,0.49
2024-01-06T13:03:49.453Z,0.49
2024-01-06T13:04:49.422Z,0.47
2024-01-06T13:05:49.513Z,0.44
2024-01-06T13:06:49.418Z,0.47
2024-01-06T13:07:49.532Z,0.50
2024-01-06T13:08:49.436Z,0.53
2024-01-06T13:09:49.300Z,0.55
2024-01-06T13:10:49.325Z,0.57
2024-01-06T13:11:49.338Z,0.60
2024-01-06T13:12:52.111Z,0.61
2024-01-06T13:13:50.511Z,0.66
2024-01-06T13:14:49.691Z,0.65
2024-01-06T13:15:49.573Z,0.65
2024-01-06T13:16:49.325Z,0.65
2024-01-06T13:17:49.274Z,0.61
2024-01-06T13:18:51.569Z,0.66